Time;durP1;ratioP1;P1;durP2;ratioP2;P2;SDS_P1;SDS_P2;PMS_P1;PMS_P2;Temp;Humidity;BMP_temperature;BMP_pressure;BME280_temperature;BME280_humidity;BME280_pressure;Samples;Min_cycle;Max_cycle;Signal;HPM_P1;HPM_P2
2022/01/15 00:01:32;;;;;;;27.00;12.95;;;;;;;;;;4976336;28;20417;-51
2022/01/15 00:03:58;;;;;;;22.83;12.90;;;;;;;;;;4976304;28;20173;-50
2022/01/15 00:06:24;;;;;;;22.07;11.63;;;;;;;;;;4976098;28;20560;-50
2022/01/15 00:08:50;;;;;;;22.02;11.93;;;;;;;;;;4976360;28;20424;-50
2022/01/15 00:11:17;;;;;;;30.48;14.00;;;;;;;;;;4976004;28;20191;-51
2022/01/15 00:13:45;;;;;;;28.17;12.63;;;;;;;;;;4975365;28;20184;-51
2022/01/15 00:16:24;;;;;;;26.70;12.52;;;;;;;;;;4976334;28;20197;-50
2022/01/15 00:21:46;;;;;;;32.83;14.18;;;;;;;;;;4963536;28;20236;-52
2022/01/15 00:24:15;;;;;;;32.53;14.82;;;;;;;;;;4976086;28;20174;-52
2022/01/15 00:26:42;;;;;;;31.48;16.42;;;;;;;;;;4976069;28;20197;-50
2022/01/15 00:29:08;;;;;;;32.25;15.02;;;;;;;;;;4975168;28;20189;-50
2022/01/15 00:31:37;;;;;;;37.50;14.67;;;;;;;;;;4976201;28;20170;-51
2022/01/15 00:34:03;;;;;;;43.90;15.45;;;;;;;;;;4975656;28;20401;-51
2022/01/15 00:36:29;;;;;;;36.73;15.27;;;;;;;;;;4975573;28;20169;-51
2022/01/15 00:38:55;;;;;;;29.80;14.50;;;;;;;;;;4975202;28;20499;-51
2022/01/15 00:41:24;;;;;;;33.50;14.60;;;;;;;;;;4975382;28;20761;-51
2022/01/15 00:43:51;;;;;;;31.10;14.45;;;;;;;;;;4975477;28;20528;-51
2022/01/15 00:46:17;;;;;;;34.97;17.40;;;;;;;;;;4975300;28;20235;-51
2022/01/15 00:48:43;;;;;;;27.47;13.90;;;;;;;;;;4977923;28;20963;-50
2022/01/15 00:51:09;;;;;;;29.80;13.73;;;;;;;;;;4978533;28;20433;-50
2022/01/15 00:53:34;;;;;;;41.17;13.90;;;;;;;;;;4979703;28;20405;-50
2022/01/15 00:56:00;;;;;;;29.60;14.63;;;;;;;;;;4979315;28;20413;-51
2022/01/15 00:58:26;;;;;;;27.90;13.90;;;;;;;;;;4978449;28;20477;-51
2022/01/15 01:03:56;;;;;;;27.23;13.63;;;;;;;;;;4978687;28;20407;-50
2022/01/15 01:06:22;;;;;;;21.92;12.00;;;;;;;;;;4978812;28;20284;-52
2022/01/15 01:08:48;;;;;;;30.27;13.80;;;;;;;;;;4976834;28;20313;-50
2022/01/15 01:11:18;;;;;;;27.30;13.23;;;;;;;;;;4979117;28;20504;-51
2022/01/15 01:24:25;;;;;;;25.27;12.45;;;;;;;;;;4978362;28;20252;-51
2022/01/15 01:27:03;;;;;;;26.77;12.80;;;;;;;;;;4979141;28;20248;-50
2022/01/15 01:32:14;;;;;;;27.58;13.48;;;;;;;;;;4979048;28;20263;-50
2022/01/15 01:34:42;;;;;;;23.45;12.02;;;;;;;;;;4978682;28;20540;-50
2022/01/15 01:37:20;;;;;;;29.02;13.25;;;;;;;;;;4978767;28;20205;-50
2022/01/15 01:39:50;;;;;;;22.65;11.75;;;;;;;;;;4978194;28;20207;-51
2022/01/15 01:45:06;;;;;;;23.00;12.43;;;;;;;;;;4979089;28;20228;-50
2022/01/15 01:47:40;;;;;;;21.67;12.23;;;;;;;;;;4978894;28;20189;-50
2022/01/15 01:50:17;;;;;;;24.70;12.50;;;;;;;;;;4978326;28;20185;-49
2022/01/15 01:52:44;;;;;;;28.45;14.45;;;;;;;;;;4978363;28;20197;-50
2022/01/15 01:55:11;;;;;;;23.65;12.13;;;;;;;;;;4978639;28;20170;-50
2022/01/15 01:57:37;;;;;;;25.92;12.95;;;;;;;;;;4977534;28;20177;-52
2022/01/15 02:00:05;;;;;;;31.55;13.77;;;;;;;;;;4976951;28;20194;-52
2022/01/15 02:02:31;;;;;;;25.40;12.30;;;;;;;;;;4976864;28;20178;-51
2022/01/15 02:04:58;;;;;;;23.10;11.57;;;;;;;;;;4978180;28;20177;-51
2022/01/15 02:07:25;;;;;;;26.35;12.32;;;;;;;;;;4978023;28;20455;-50
2022/01/15 02:09:51;;;;;;;27.85;11.75;;;;;;;;;;4976528;28;20569;-51
2022/01/15 02:12:17;;;;;;;26.88;12.95;;;;;;;;;;4977675;28;20676;-51
2022/01/15 02:14:43;;;;;;;24.30;12.30;;;;;;;;;;4978304;28;20170;-51
2022/01/15 02:17:12;;;;;;;25.10;14.27;;;;;;;;;;4976886;28;20483;-51
2022/01/15 02:19:46;;;;;;;20.98;11.00;;;;;;;;;;4976982;28;20425;-52
2022/01/15 02:24:57;;;;;;;22.35;11.15;;;;;;;;;;4977589;28;20232;-51
2022/01/15 02:27:23;;;;;;;20.57;12.20;;;;;;;;;;4977150;28;20209;-51
2022/01/15 02:29:48;;;;;;;19.00;11.30;;;;;;;;;;4976594;28;20512;-51
2022/01/15 02:32:14;;;;;;;17.03;10.03;;;;;;;;;;4977131;28;20398;-50
2022/01/15 02:34:40;;;;;;;20.90;11.03;;;;;;;;;;4976265;28;20416;-51
2022/01/15 02:37:06;;;;;;;19.73;9.77;;;;;;;;;;4976382;28;20912;-51
2022/01/15 02:39:35;;;;;;;20.47;10.73;;;;;;;;;;4974750;28;20990;-51
2022/01/15 02:42:01;;;;;;;18.85;10.70;;;;;;;;;;4976358;28;20791;-50
2022/01/15 02:44:28;;;;;;;17.98;9.93;;;;;;;;;;4976748;28;20178;-51
2022/01/15 02:49:20;;;;;;;15.53;8.50;;;;;;;;;;4976557;28;20228;-50
2022/01/15 02:51:46;;;;;;;18.77;10.00;;;;;;;;;;4977423;28;20461;-49
2022/01/15 02:56:54;;;;;;;11.90;8.48;;;;;;;;;;4953418;29;20477;-59
2022/01/15 02:59:26;;;;;;;16.13;8.87;;;;;;;;;;4954815;28;20167;-58
2022/01/15 03:01:52;;;;;;;15.10;8.68;;;;;;;;;;4955433;28;20406;-58
2022/01/15 03:04:19;;;;;;;15.85;8.52;;;;;;;;;;4955124;28;20170;-58
2022/01/15 03:06:45;;;;;;;15.45;8.75;;;;;;;;;;4955387;29;20204;-58
2022/01/15 03:09:11;;;;;;;19.65;9.52;;;;;;;;;;4953470;28;20182;-59
2022/01/15 03:11:38;;;;;;;13.68;8.30;;;;;;;;;;4954447;28;20269;-58
2022/01/15 03:14:04;;;;;;;18.40;9.73;;;;;;;;;;4956720;29;20251;-57
2022/01/15 03:16:30;;;;;;;13.47;8.60;;;;;;;;;;4957218;29;20850;-58
2022/01/15 03:18:56;;;;;;;14.70;9.63;;;;;;;;;;4956248;29;20406;-58
2022/01/15 03:21:22;;;;;;;16.03;9.10;;;;;;;;;;4956906;29;20434;-58
2022/01/15 03:23:48;;;;;;;20.07;7.97;;;;;;;;;;4956171;29;20889;-58
2022/01/15 03:26:14;;;;;;;15.98;8.38;;;;;;;;;;4955900;29;20497;-58
2022/01/15 03:28:41;;;;;;;15.13;8.73;;;;;;;;;;4956014;28;20166;-58
2022/01/15 03:31:07;;;;;;;11.57;8.13;;;;;;;;;;4956469;29;20163;-58
2022/01/15 03:33:33;;;;;;;12.23;8.32;;;;;;;;;;4955056;29;20248;-58
2022/01/15 03:35:59;;;;;;;15.63;8.75;;;;;;;;;;4955129;29;20684;-58
2022/01/15 03:38:25;;;;;;;14.05;8.18;;;;;;;;;;4952612;28;20230;-58
2022/01/15 03:40:53;;;;;;;19.77;8.43;;;;;;;;;;4955149;28;20194;-58
2022/01/15 03:43:19;;;;;;;18.48;9.32;;;;;;;;;;4955803;28;20912;-58
2022/01/15 03:45:45;;;;;;;14.70;9.10;;;;;;;;;;4955818;28;20194;-58
2022/01/15 03:48:11;;;;;;;18.97;9.07;;;;;;;;;;4954841;28;20421;-58
2022/01/15 03:50:37;;;;;;;17.33;9.00;;;;;;;;;;4956180;28;20401;-58
2022/01/15 03:53:03;;;;;;;13.40;7.63;;;;;;;;;;4955674;28;20410;-59
2022/01/15 03:55:29;;;;;;;15.80;8.13;;;;;;;;;;4954522;28;20348;-58
2022/01/15 03:57:55;;;;;;;12.18;7.05;;;;;;;;;;4953971;28;20406;-57
2022/01/15 04:00:25;;;;;;;14.20;6.87;;;;;;;;;;4954306;28;20177;-58
2022/01/15 04:02:51;;;;;;;13.02;7.80;;;;;;;;;;4954625;28;20432;-58
2022/01/15 04:05:17;;;;;;;10.30;6.80;;;;;;;;;;4954510;28;20277;-58
2022/01/15 04:07:43;;;;;;;15.95;7.55;;;;;;;;;;4953079;28;20198;-58
2022/01/15 04:10:12;;;;;;;12.57;7.47;;;;;;;;;;4954414;29;20181;-58
2022/01/15 04:12:38;;;;;;;15.65;8.30;;;;;;;;;;4954838;29;20234;-57
2022/01/15 04:15:05;;;;;;;14.43;7.88;;;;;;;;;;4951612;28;20198;-57
2022/01/15 04:17:31;;;;;;;15.95;9.23;;;;;;;;;;4951100;29;20175;-58
2022/01/15 04:19:58;;;;;;;16.23;8.25;;;;;;;;;;4951697;28;20214;-58
2022/01/15 04:22:24;;;;;;;14.13;7.25;;;;;;;;;;4958170;28;20194;-58
2022/01/15 04:24:50;;;;;;;12.13;7.27;;;;;;;;;;4958743;28;20190;-58
2022/01/15 04:27:16;;;;;;;13.30;8.00;;;;;;;;;;4958206;29;20523;-58
2022/01/15 04:29:42;;;;;;;14.02;8.27;;;;;;;;;;4959293;28;20409;-58
2022/01/15 04:32:08;;;;;;;14.37;8.70;;;;;;;;;;4959679;28;20249;-58
2022/01/15 04:34:34;;;;;;;13.60;8.10;;;;;;;;;;4959810;28;20885;-58
2022/01/15 04:37:11;;;;;;;13.20;8.60;;;;;;;;;;4958658;29;20309;-58
2022/01/15 04:39:37;;;;;;;13.60;7.68;;;;;;;;;;4959831;28;20406;-58
2022/01/15 04:42:03;;;;;;;15.43;9.63;;;;;;;;;;4960401;28;20177;-58
2022/01/15 04:44:29;;;;;;;15.95;9.05;;;;;;;;;;4960523;28;20642;-58
2022/01/15 04:46:55;;;;;;;13.52;8.25;;;;;;;;;;4960088;28;20190;-58
2022/01/15 04:49:21;;;;;;;17.30;8.67;;;;;;;;;;4959161;28;20169;-58
2022/01/15 04:51:47;;;;;;;12.25;9.30;;;;;;;;;;4959480;28;20457;-58
2022/01/15 04:54:13;;;;;;;13.02;8.35;;;;;;;;;;4960010;28;20175;-58
2022/01/15 04:56:39;;;;;;;14.23;8.52;;;;;;;;;;4959769;28;20214;-58
2022/01/15 04:59:05;;;;;;;12.73;8.53;;;;;;;;;;4958797;28;20253;-58
2022/01/15 05:01:31;;;;;;;15.25;9.43;;;;;;;;;;4959600;28;20820;-58
2022/01/15 05:03:57;;;;;;;12.03;8.23;;;;;;;;;;4958135;28;20209;-56
2022/01/15 05:06:23;;;;;;;18.13;8.60;;;;;;;;;;4958822;29;20461;-58
2022/01/15 05:08:57;;;;;;;16.17;8.53;;;;;;;;;;4959065;29;20402;-58
2022/01/15 05:11:30;;;;;;;14.00;8.73;;;;;;;;;;4960014;28;20943;-58
2022/01/15 05:13:56;;;;;;;14.75;9.07;;;;;;;;;;4959696;28;20166;-58
2022/01/15 05:16:22;;;;;;;10.47;7.93;;;;;;;;;;4960022;29;20222;-58
2022/01/15 05:18:48;;;;;;;13.37;8.97;;;;;;;;;;4958753;29;20445;-58
2022/01/15 05:21:14;;;;;;;14.87;8.30;;;;;;;;;;4959202;29;20406;-58
2022/01/15 05:23:40;;;;;;;14.80;8.73;;;;;;;;;;4958919;29;21058;-58
2022/01/15 05:26:06;;;;;;;11.20;7.73;;;;;;;;;;4958858;29;20461;-58
2022/01/15 05:28:32;;;;;;;12.45;7.35;;;;;;;;;;4957755;29;20398;-58
2022/01/15 05:30:58;;;;;;;12.53;7.50;;;;;;;;;;4958520;29;20642;-58
2022/01/15 05:33:24;;;;;;;15.47;8.23;;;;;;;;;;4957258;28;20403;-58
2022/01/15 05:35:50;;;;;;;17.57;8.40;;;;;;;;;;4957198;28;20460;-58
2022/01/15 05:38:16;;;;;;;13.93;8.93;;;;;;;;;;4957478;28;20409;-58
2022/01/15 05:40:42;;;;;;;16.97;9.03;;;;;;;;;;4958630;28;20528;-58
2022/01/15 05:43:08;;;;;;;15.43;9.20;;;;;;;;;;4958619;28;20409;-57
2022/01/15 05:45:34;;;;;;;13.00;8.50;;;;;;;;;;4958393;28;20422;-57
2022/01/15 05:48:00;;;;;;;14.20;9.40;;;;;;;;;;4957351;28;20947;-58
2022/01/15 05:50:26;;;;;;;16.20;8.90;;;;;;;;;;4957492;28;20469;-58
2022/01/15 05:52:52;;;;;;;14.95;9.15;;;;;;;;;;4958328;28;20493;-58
2022/01/15 05:55:18;;;;;;;16.53;9.70;;;;;;;;;;4957957;28;20297;-58
2022/01/15 05:57:44;;;;;;;22.13;10.10;;;;;;;;;;4957724;28;20398;-58
2022/01/15 06:00:10;;;;;;;15.13;9.02;;;;;;;;;;4957552;29;20213;-58
2022/01/15 06:02:36;;;;;;;16.73;9.43;;;;;;;;;;4958134;28;20217;-58
2022/01/15 06:05:02;;;;;;;19.50;9.60;;;;;;;;;;4957053;28;20235;-58
2022/01/15 06:07:28;;;;;;;18.73;10.07;;;;;;;;;;4957740;29;20467;-58
2022/01/15 06:09:54;;;;;;;14.93;9.20;;;;;;;;;;4956510;29;20174;-57
2022/01/15 06:12:27;;;;;;;15.63;9.00;;;;;;;;;;4957143;29;20430;-58
2022/01/15 06:14:53;;;;;;;18.25;9.65;;;;;;;;;;4957870;28;20432;-58
2022/01/15 06:17:19;;;;;;;17.23;9.23;;;;;;;;;;4957654;29;20529;-58
2022/01/15 06:19:45;;;;;;;14.97;8.97;;;;;;;;;;4956778;29;20410;-58
2022/01/15 06:22:11;;;;;;;17.57;8.60;;;;;;;;;;4956008;29;20414;-58
2022/01/15 06:24:37;;;;;;;24.03;9.63;;;;;;;;;;4956891;29;20433;-58
2022/01/15 06:27:03;;;;;;;15.53;9.67;;;;;;;;;;4956674;29;20477;-58
2022/01/15 06:29:29;;;;;;;20.90;8.32;;;;;;;;;;4955551;29;20413;-58
2022/01/15 06:31:55;;;;;;;15.15;8.90;;;;;;;;;;4956099;29;20247;-59
2022/01/15 06:34:21;;;;;;;15.47;9.70;;;;;;;;;;4955786;28;20242;-57
2022/01/15 06:36:47;;;;;;;17.93;9.00;;;;;;;;;;4956965;29;20410;-58
2022/01/15 06:39:13;;;;;;;13.80;8.80;;;;;;;;;;4956609;29;20402;-58
2022/01/15 06:41:39;;;;;;;15.93;8.63;;;;;;;;;;4957915;29;20406;-58
2022/01/15 06:44:05;;;;;;;17.50;9.60;;;;;;;;;;4957668;28;20754;-58
2022/01/15 06:46:31;;;;;;;19.47;9.27;;;;;;;;;;4957248;29;21022;-58
2022/01/15 06:48:57;;;;;;;13.83;8.40;;;;;;;;;;4957302;29;20497;-58
2022/01/15 06:51:25;;;;;;;16.57;9.47;;;;;;;;;;4957790;29;20873;-58
2022/01/15 06:53:51;;;;;;;20.55;9.40;;;;;;;;;;4958145;28;20484;-58
2022/01/15 06:56:17;;;;;;;20.00;9.97;;;;;;;;;;4957454;29;20242;-58
2022/01/15 06:58:43;;;;;;;25.70;11.57;;;;;;;;;;4956895;29;20445;-58
2022/01/15 07:01:09;;;;;;;24.80;10.23;;;;;;;;;;4957864;29;20424;-58
2022/01/15 07:03:35;;;;;;;23.45;10.48;;;;;;;;;;4956617;29;20434;-58
2022/01/15 07:06:01;;;;;;;36.10;9.50;;;;;;;;;;4956673;28;20623;-58
2022/01/15 07:08:27;;;;;;;18.70;8.67;;;;;;;;;;4956573;29;20440;-58
2022/01/15 07:10:53;;;;;;;18.80;10.20;;;;;;;;;;4956284;29;20406;-58
2022/01/15 07:13:20;;;;;;;17.40;9.13;;;;;;;;;;4957816;29;20874;-58
2022/01/15 07:15:46;;;;;;;18.77;9.95;;;;;;;;;;4957537;28;20437;-58
2022/01/15 07:18:12;;;;;;;21.23;9.85;;;;;;;;;;4956718;29;20174;-57
2022/01/15 07:20:38;;;;;;;22.07;9.40;;;;;;;;;;4957099;29;20225;-58
2022/01/15 07:23:04;;;;;;;17.15;8.88;;;;;;;;;;4956899;29;20438;-58
2022/01/15 07:25:30;;;;;;;17.40;8.23;;;;;;;;;;4957271;29;20197;-58
2022/01/15 07:27:56;;;;;;;24.63;9.97;;;;;;;;;;4956384;29;20462;-58
2022/01/15 07:30:22;;;;;;;22.10;7.67;;;;;;;;;;4956697;29;20461;-58
2022/01/15 07:32:48;;;;;;;21.58;8.15;;;;;;;;;;4955966;28;20426;-58
2022/01/15 07:35:14;;;;;;;29.83;9.37;;;;;;;;;;4955881;28;20744;-58
2022/01/15 07:37:41;;;;;;;25.17;9.18;;;;;;;;;;4956985;28;20490;-58
2022/01/15 07:40:07;;;;;;;18.30;9.02;;;;;;;;;;4956166;28;20174;-58
2022/01/15 07:42:36;;;;;;;20.52;8.45;;;;;;;;;;4956885;28;20174;-58
2022/01/15 07:45:06;;;;;;;34.35;9.77;;;;;;;;;;4955779;28;20210;-58
2022/01/15 07:47:32;;;;;;;22.20;9.70;;;;;;;;;;4956536;28;20201;-58
2022/01/15 07:49:58;;;;;;;16.20;8.93;;;;;;;;;;4955733;28;20183;-58
2022/01/15 07:52:24;;;;;;;20.63;8.95;;;;;;;;;;4956154;28;20776;-58
2022/01/15 07:54:50;;;;;;;36.88;12.52;;;;;;;;;;4955099;28;20210;-58
2022/01/15 07:57:16;;;;;;;20.93;8.67;;;;;;;;;;4955617;29;20185;-58
2022/01/15 07:59:42;;;;;;;24.73;8.50;;;;;;;;;;4955187;28;20914;-58
2022/01/15 08:02:08;;;;;;;13.67;8.20;;;;;;;;;;4955107;28;20794;-58
2022/01/15 08:04:34;;;;;;;20.97;10.00;;;;;;;;;;4956708;29;20422;-58
2022/01/15 08:07:00;;;;;;;20.63;9.90;;;;;;;;;;4958935;28;20465;-58
2022/01/15 08:09:26;;;;;;;37.90;11.80;;;;;;;;;;4955968;28;20413;-58
2022/01/15 08:11:52;;;;;;;21.93;9.00;;;;;;;;;;4955741;28;20421;-57
2022/01/15 08:14:18;;;;;;;22.17;9.50;;;;;;;;;;4955146;28;20445;-58
2022/01/15 08:16:44;;;;;;;18.47;7.57;;;;;;;;;;4956072;28;20413;-58
2022/01/15 08:19:10;;;;;;;18.45;8.07;;;;;;;;;;4954058;28;20784;-58
2022/01/15 08:21:36;;;;;;;20.17;10.02;;;;;;;;;;4955911;28;20241;-58
2022/01/15 08:24:02;;;;;;;18.47;9.07;;;;;;;;;;4955680;28;20643;-58
2022/01/15 08:26:28;;;;;;;22.75;9.57;;;;;;;;;;4955749;28;20514;-58
2022/01/15 08:28:54;;;;;;;28.88;10.05;;;;;;;;;;4954488;28;20169;-58
2022/01/15 08:31:20;;;;;;;18.27;9.10;;;;;;;;;;4955316;28;20538;-58
2022/01/15 08:33:46;;;;;;;14.52;8.07;;;;;;;;;;4965145;28;20425;-58
2022/01/15 08:36:12;;;;;;;21.67;9.77;;;;;;;;;;4975296;28;20668;-58
2022/01/15 08:38:38;;;;;;;27.75;9.95;;;;;;;;;;4974732;28;20567;-58
2022/01/15 08:41:04;;;;;;;17.90;9.10;;;;;;;;;;4975285;28;20211;-58
2022/01/15 08:43:30;;;;;;;24.63;10.60;;;;;;;;;;4975979;28;20923;-58
2022/01/15 08:45:56;;;;;;;21.42;10.23;;;;;;;;;;4973509;28;20440;-58
2022/01/15 08:48:22;;;;;;;21.03;9.53;;;;;;;;;;4957800;28;20190;-59
2022/01/15 08:50:49;;;;;;;27.65;10.52;;;;;;;;;;4956040;28;20441;-58
2022/01/15 08:53:17;;;;;;;26.23;11.10;;;;;;;;;;4955251;28;20225;-57
2022/01/15 08:55:43;;;;;;;20.88;10.85;;;;;;;;;;4968192;23;20316;-54
2022/01/15 08:58:09;;;;;;;23.75;10.27;;;;;;;;;;4951293;29;20245;-54
2022/01/15 09:00:35;;;;;;;20.87;9.03;;;;;;;;;;4953182;29;20596;-54
2022/01/15 09:03:02;;;;;;;24.45;9.40;;;;;;;;;;4951319;28;20489;-54
2022/01/15 09:05:30;;;;;;;27.75;10.63;;;;;;;;;;4952859;29;20189;-54
2022/01/15 09:07:56;;;;;;;22.85;8.45;;;;;;;;;;4953226;28;20190;-54
2022/01/15 09:10:22;;;;;;;23.95;11.27;;;;;;;;;;4956601;29;20231;-54
2022/01/15 09:12:49;;;;;;;22.85;9.75;;;;;;;;;;4956708;29;20159;-54
2022/01/15 09:15:16;;;;;;;18.77;9.23;;;;;;;;;;4956689;29;20186;-54
2022/01/15 09:17:42;;;;;;;20.25;9.88;;;;;;;;;;4956552;29;20182;-54
2022/01/15 09:20:08;;;;;;;20.13;9.90;;;;;;;;;;4955865;29;20182;-54
2022/01/15 09:22:34;;;;;;;24.25;10.63;;;;;;;;;;4956549;29;20667;-54
2022/01/15 09:25:00;;;;;;;18.75;10.15;;;;;;;;;;4956503;29;20213;-54
2022/01/15 09:30:13;;;;;;;22.10;9.65;;;;;;;;;;4955763;29;20698;-54
2022/01/15 09:32:47;;;;;;;20.70;10.60;;;;;;;;;;4955298;29;20174;-54
2022/01/15 09:35:14;;;;;;;22.02;9.75;;;;;;;;;;4956409;28;20186;-54
2022/01/15 09:37:40;;;;;;;20.02;9.98;;;;;;;;;;4956261;29;20174;-54
2022/01/15 09:40:07;;;;;;;21.95;9.27;;;;;;;;;;4955447;29;20172;-54
2022/01/15 09:42:34;;;;;;;25.45;10.93;;;;;;;;;;4956189;28;20170;-54
2022/01/15 09:45:02;;;;;;;20.73;10.73;;;;;;;;;;4956104;28;20264;-54
2022/01/15 09:47:28;;;;;;;17.42;9.68;;;;;;;;;;4955260;29;20222;-54
2022/01/15 09:49:55;;;;;;;35.45;12.20;;;;;;;;;;4955269;29;20653;-54
2022/01/15 09:52:22;;;;;;;18.50;10.45;;;;;;;;;;4954876;29;20178;-54
2022/01/15 09:54:50;;;;;;;24.50;11.27;;;;;;;;;;4955633;28;20165;-54
2022/01/15 09:57:16;;;;;;;22.08;10.80;;;;;;;;;;4955828;28;20167;-54
2022/01/15 09:59:42;;;;;;;20.37;10.40;;;;;;;;;;4955251;29;20229;-54
2022/01/15 10:02:08;;;;;;;26.60;11.63;;;;;;;;;;4955370;29;20432;-54
2022/01/15 10:04:35;;;;;;;22.70;11.13;;;;;;;;;;4955560;28;20417;-54
2022/01/15 10:07:07;;;;;;;20.20;10.98;;;;;;;;;;4955596;28;20493;-54
2022/01/15 10:09:33;;;;;;;25.63;10.45;;;;;;;;;;4955025;29;20254;-54
2022/01/15 10:11:59;;;;;;;19.77;10.80;;;;;;;;;;4955392;29;20178;-54
2022/01/15 10:14:29;;;;;;;20.60;9.88;;;;;;;;;;4955478;29;20170;-54
2022/01/15 10:16:56;;;;;;;23.88;10.18;;;;;;;;;;4955485;28;20532;-54
2022/01/15 10:19:26;;;;;;;23.75;8.50;;;;;;;;;;4952565;28;20178;-54
2022/01/15 10:22:06;;;;;;;19.50;9.95;;;;;;;;;;4954437;29;20666;-54
2022/01/15 10:24:32;;;;;;;17.13;10.82;;;;;;;;;;4955434;28;20551;-54
2022/01/15 10:27:16;;;;;;;17.42;9.88;;;;;;;;;;4955010;29;20686;-54
2022/01/15 10:29:42;;;;;;;17.83;9.52;;;;;;;;;;4954681;28;20225;-54
2022/01/15 10:32:13;;;;;;;16.40;8.93;;;;;;;;;;4955436;28;20171;-54
2022/01/15 10:34:42;;;;;;;18.65;9.40;;;;;;;;;;4953918;28;20170;-54
2022/01/15 10:37:13;;;;;;;15.48;9.15;;;;;;;;;;4955065;28;20178;-54
2022/01/15 10:39:40;;;;;;;22.70;10.80;;;;;;;;;;4954555;29;20182;-54
2022/01/15 10:42:16;;;;;;;16.13;8.80;;;;;;;;;;4954840;29;20306;-54
2022/01/15 10:44:44;;;;;;;18.30;9.82;;;;;;;;;;4954977;28;20252;-54
2022/01/15 10:47:13;;;;;;;20.23;8.70;;;;;;;;;;4954964;28;20304;-54
2022/01/15 10:49:41;;;;;;;16.48;8.95;;;;;;;;;;4954458;28;20511;-54
2022/01/15 10:52:26;;;;;;;17.83;9.82;;;;;;;;;;4953934;28;20182;-54
2022/01/15 10:54:52;;;;;;;14.50;9.02;;;;;;;;;;4957451;28;20178;-54
2022/01/15 10:57:19;;;;;;;13.10;8.57;;;;;;;;;;4954942;28;20190;-54
2022/01/15 11:00:03;;;;;;;18.83;9.23;;;;;;;;;;4954079;28;20406;-54
2022/01/15 11:02:29;;;;;;;17.13;9.90;;;;;;;;;;4954801;28;20625;-54
2022/01/15 11:04:55;;;;;;;19.25;9.10;;;;;;;;;;4954799;28;20273;-54
2022/01/15 11:07:21;;;;;;;15.10;9.25;;;;;;;;;;4954653;28;20359;-54
2022/01/15 11:09:49;;;;;;;16.45;8.75;;;;;;;;;;4954172;28;20646;-54
2022/01/15 11:12:16;;;;;;;14.70;8.75;;;;;;;;;;4954806;28;20167;-54
2022/01/15 11:14:42;;;;;;;18.77;10.48;;;;;;;;;;4954562;28;20159;-54
2022/01/15 11:17:08;;;;;;;15.73;9.60;;;;;;;;;;4954610;28;20229;-54
2022/01/15 11:19:35;;;;;;;14.38;9.10;;;;;;;;;;4953892;28;20438;-54
2022/01/15 11:22:02;;;;;;;12.13;8.10;;;;;;;;;;4953684;28;20183;-54
2022/01/15 11:24:28;;;;;;;15.38;9.13;;;;;;;;;;4954534;29;20174;-54
2022/01/15 11:26:59;;;;;;;13.33;8.67;;;;;;;;;;4954212;29;20222;-54
2022/01/15 11:29:26;;;;;;;15.73;10.10;;;;;;;;;;4952941;29;20414;-54
2022/01/15 11:31:57;;;;;;;18.27;11.65;;;;;;;;;;4953601;28;20568;-54
2022/01/15 11:34:23;;;;;;;19.50;11.40;;;;;;;;;;4954308;29;20225;-54
2022/01/15 11:36:50;;;;;;;17.35;9.80;;;;;;;;;;4951764;28;20198;-54
2022/01/15 11:39:28;;;;;;;17.48;10.15;;;;;;;;;;4950417;29;20174;-54
2022/01/15 11:41:55;;;;;;;13.93;10.00;;;;;;;;;;4954261;28;20181;-54
2022/01/15 11:44:35;;;;;;;17.10;10.60;;;;;;;;;;4954234;28;20258;-54
2022/01/15 11:47:12;;;;;;;15.07;9.85;;;;;;;;;;4954214;28;20210;-54
2022/01/15 11:49:42;;;;;;;16.73;10.68;;;;;;;;;;4953472;29;20532;-54
2022/01/15 11:52:12;;;;;;;14.90;9.52;;;;;;;;;;4954129;29;20213;-54
2022/01/15 11:54:42;;;;;;;14.32;10.35;;;;;;;;;;4953964;29;20170;-55
2022/01/15 11:57:20;;;;;;;21.17;12.10;;;;;;;;;;4953815;29;20642;-54
2022/01/15 11:59:47;;;;;;;24.00;11.88;;;;;;;;;;4952579;29;20233;-54
2022/01/15 12:02:32;;;;;;;26.40;11.50;;;;;;;;;;4952177;29;20178;-54
2022/01/15 12:05:13;;;;;;;21.23;12.43;;;;;;;;;;4944968;28;20209;-52
2022/01/15 12:07:39;;;;;;;17.88;10.93;;;;;;;;;;4947293;29;20217;-52
2022/01/15 12:10:05;;;;;;;19.97;10.97;;;;;;;;;;4949161;28;20178;-52
2022/01/15 12:12:38;;;;;;;17.27;9.98;;;;;;;;;;4952923;29;20929;-53
2022/01/15 12:15:05;;;;;;;18.48;11.57;;;;;;;;;;4950064;28;20278;-51
2022/01/15 12:17:39;;;;;;;24.75;14.27;;;;;;;;;;4952818;29;20210;-52
2022/01/15 12:20:28;;;;;;;21.05;12.10;;;;;;;;;;4952852;29;20178;-53
2022/01/15 12:23:04;;;;;;;20.92;12.80;;;;;;;;;;4949318;29;20194;-55
2022/01/15 12:25:32;;;;;;;20.00;12.00;;;;;;;;;;4934443;29;20194;-54
2022/01/15 12:28:00;;;;;;;23.15;13.20;;;;;;;;;;4951200;29;20194;-53
2022/01/15 12:30:27;;;;;;;18.52;11.25;;;;;;;;;;4953603;29;20175;-53
2022/01/15 12:32:54;;;;;;;18.75;12.02;;;;;;;;;;4953596;29;20185;-53
2022/01/15 12:35:22;;;;;;;16.13;10.07;;;;;;;;;;4952500;28;20213;-53
2022/01/15 12:37:57;;;;;;;17.63;11.93;;;;;;;;;;4953433;28;20283;-53
2022/01/15 12:40:42;;;;;;;17.30;11.23;;;;;;;;;;4953438;29;20236;-53
2022/01/15 12:43:11;;;;;;;16.23;11.15;;;;;;;;;;4956015;28;20220;-53
2022/01/15 12:45:38;;;;;;;16.70;11.38;;;;;;;;;;4957037;28;20588;-53
2022/01/15 12:48:04;;;;;;;14.88;10.15;;;;;;;;;;4956362;29;20228;-54
2022/01/15 12:50:41;;;;;;;14.82;9.80;;;;;;;;;;4957029;29;20174;-53
2022/01/15 12:53:07;;;;;;;17.20;11.57;;;;;;;;;;4957106;28;20224;-53
2022/01/15 12:55:37;;;;;;;15.37;9.83;;;;;;;;;;4956600;28;20209;-53
2022/01/15 12:58:04;;;;;;;17.85;10.55;;;;;;;;;;4952605;28;20417;-53
2022/01/15 13:00:31;;;;;;;11.55;8.10;;;;;;;;;;4956863;29;20170;-53
2022/01/15 13:03:06;;;;;;;14.20;9.25;;;;;;;;;;4956900;29;20775;-53
2022/01/15 13:05:32;;;;;;;12.95;8.77;;;;;;;;;;4955554;28;20208;-53
2022/01/15 13:08:04;;;;;;;14.05;9.40;;;;;;;;;;4954325;28;20205;-53
2022/01/15 13:10:34;;;;;;;18.13;10.90;;;;;;;;;;4955801;28;20178;-54
2022/01/15 13:13:01;;;;;;;18.15;11.20;;;;;;;;;;4956761;28;20171;-53
2022/01/15 13:15:28;;;;;;;19.30;11.50;;;;;;;;;;4956448;28;20182;-53
2022/01/15 13:17:54;;;;;;;15.85;10.30;;;;;;;;;;4956327;29;20642;-53
2022/01/15 13:20:31;;;;;;;18.30;10.27;;;;;;;;;;4956166;29;20532;-53
2022/01/15 13:22:57;;;;;;;16.80;9.02;;;;;;;;;;4956545;29;20169;-54
2022/01/15 13:25:24;;;;;;;17.65;11.35;;;;;;;;;;4956408;28;20226;-53
2022/01/15 13:27:50;;;;;;;19.90;11.02;;;;;;;;;;4956240;29;20269;-53
2022/01/15 13:30:16;;;;;;;17.60;10.88;;;;;;;;;;4955677;29;20167;-53
2022/01/15 13:32:52;;;;;;;15.90;10.83;;;;;;;;;;4956267;29;20170;-53
2022/01/15 13:35:19;;;;;;;15.35;9.85;;;;;;;;;;4956205;28;20524;-53
2022/01/15 13:37:56;;;;;;;17.35;9.05;;;;;;;;;;4956100;29;20205;-53
2022/01/15 13:40:29;;;;;;;13.63;9.52;;;;;;;;;;4955192;28;20189;-53
2022/01/15 13:42:55;;;;;;;16.20;10.07;;;;;;;;;;4956066;28;20562;-53
2022/01/15 13:45:21;;;;;;;12.50;8.97;;;;;;;;;;4955943;28;20186;-53
2022/01/15 13:47:47;;;;;;;12.43;8.10;;;;;;;;;;4955085;28;20468;-53
2022/01/15 13:53:11;;;;;;;11.05;7.65;;;;;;;;;;4955706;28;20489;-55
2022/01/15 13:55:37;;;;;;;12.75;8.40;;;;;;;;;;4955237;29;20283;-53
2022/01/15 13:58:14;;;;;;;15.73;8.83;;;;;;;;;;4955159;29;20604;-53
2022/01/15 14:00:40;;;;;;;12.15;8.40;;;;;;;;;;4955751;29;20421;-53
2022/01/15 14:03:07;;;;;;;14.70;9.32;;;;;;;;;;4955785;29;20181;-53
2022/01/15 14:05:34;;;;;;;18.90;9.95;;;;;;;;;;4954227;28;20213;-53
2022/01/15 14:08:11;;;;;;;11.60;8.90;;;;;;;;;;4954820;29;20260;-53
2022/01/15 14:10:38;;;;;;;12.85;9.60;;;;;;;;;;4954474;29;20706;-53
2022/01/15 14:13:06;;;;;;;12.85;8.68;;;;;;;;;;4955608;28;20166;-53
2022/01/15 14:15:36;;;;;;;11.18;8.52;;;;;;;;;;4955586;28;20179;-53
2022/01/15 14:18:11;;;;;;;13.10;8.38;;;;;;;;;;4954672;29;20175;-53
2022/01/15 14:20:50;;;;;;;13.95;9.50;;;;;;;;;;4955486;29;20304;-53
2022/01/15 14:23:27;;;;;;;16.63;10.98;;;;;;;;;;4954230;28;20182;-53
2022/01/15 14:25:53;;;;;;;14.13;8.68;;;;;;;;;;4955292;28;20217;-53
2022/01/15 14:28:23;;;;;;;13.03;9.63;;;;;;;;;;4954514;29;20639;-53
2022/01/15 14:30:56;;;;;;;15.82;11.27;;;;;;;;;;4955215;28;21029;-53
2022/01/15 14:33:22;;;;;;;15.95;11.40;;;;;;;;;;4955337;28;20163;-53
2022/01/15 14:35:49;;;;;;;16.55;10.05;;;;;;;;;;4955140;28;20213;-54
2022/01/15 14:38:15;;;;;;;15.15;10.05;;;;;;;;;;4954431;29;20208;-53
2022/01/15 14:40:41;;;;;;;12.90;9.02;;;;;;;;;;4954127;29;20225;-53
2022/01/15 14:43:07;;;;;;;13.48;9.88;;;;;;;;;;4952916;29;20175;-53
2022/01/15 14:45:36;;;;;;;11.40;9.10;;;;;;;;;;4953807;28;20206;-54
2022/01/15 14:48:03;;;;;;;16.00;9.68;;;;;;;;;;4954184;28;20454;-53
2022/01/15 14:50:29;;;;;;;14.70;10.25;;;;;;;;;;4953662;28;20183;-53
2022/01/15 14:52:55;;;;;;;17.10;10.55;;;;;;;;;;4954774;29;20660;-53
2022/01/15 14:55:21;;;;;;;17.97;11.93;;;;;;;;;;4954539;28;20241;-53
2022/01/15 14:57:47;;;;;;;14.70;9.73;;;;;;;;;;4954971;29;20464;-54
2022/01/15 15:00:13;;;;;;;12.07;9.40;;;;;;;;;;4953429;29;20477;-53
2022/01/15 15:02:40;;;;;;;17.63;9.13;;;;;;;;;;4954595;29;20406;-53